Time;durP1;ratioP1;P1;durP2;ratioP2;P2;SDS_P1;SDS_P2;PMS_P1;PMS_P2;Temp;Humidity;BMP_temperature;BMP_pressure;BME280_temperature;BME280_humidity;BME280_pressure;Samples;Min_cycle;Max_cycle;Signal;HPM_P1;HPM_P2
2023/06/26 00:01:35;;;;;;;40.88;27.00;;;19.80;68.90;;;;;;5079963;28;20029;-74
2023/06/26 00:04:02;;;;;;;50.95;32.10;;;19.80;69.10;;;;;;5080772;28;20137;-73
2023/06/26 00:06:28;;;;;;;65.35;38.25;;;19.70;69.20;;;;;;5079848;28;20028;-74
2023/06/26 00:08:55;;;;;;;69.35;39.40;;;19.70;68.80;;;;;;5080773;28;20123;-74
2023/06/26 00:11:22;;;;;;;60.47;37.75;;;19.70;68.60;;;;;;5080937;28;20410;-74
2023/06/26 00:13:48;;;;;;;64.10;37.53;;;19.70;68.40;;;;;;5080625;28;20038;-74
2023/06/26 00:16:14;;;;;;;56.92;34.70;;;19.70;68.40;;;;;;5078503;28;20052;-74
2023/06/26 00:18:40;;;;;;;62.75;36.80;;;19.70;68.20;;;;;;5082109;28;20031;-74
2023/06/26 00:21:06;;;;;;;56.72;34.90;;;19.70;68.30;;;;;;5079620;28;20036;-74
2023/06/26 00:23:36;;;;;;;50.97;32.90;;;19.70;68.60;;;;;;5079181;28;20042;-73
2023/06/26 00:26:04;;;;;;;48.47;29.88;;;19.60;68.30;;;;;;5078044;28;20506;-74
2023/06/26 00:28:30;;;;;;;47.63;30.23;;;19.70;68.20;;;;;;5082191;28;20097;-75
2023/06/26 00:30:57;;;;;;;46.38;28.58;;;19.60;68.30;;;;;;5078658;28;20165;-74
2023/06/26 00:33:23;;;;;;;43.85;28.10;;;19.60;68.20;;;;;;5078966;28;20458;-73
2023/06/26 00:35:50;;;;;;;38.72;27.10;;;19.60;68.10;;;;;;5066318;28;20468;-74
2023/06/26 00:38:17;;;;;;;40.05;26.58;;;19.50;67.70;;;;;;5082261;28;20414;-74
2023/06/26 00:40:43;;;;;;;40.22;26.33;;;19.60;67.70;;;;;;5083023;28;20477;-74
2023/06/26 00:43:09;;;;;;;37.38;24.95;;;19.60;67.70;;;;;;5079812;28;20039;-74
2023/06/26 00:45:35;;;;;;;36.58;25.33;;;19.60;67.70;;;;;;5078371;28;20509;-74
2023/06/26 00:48:02;;;;;;;35.20;23.45;;;19.60;67.90;;;;;;5079693;28;20028;-74
2023/06/26 00:50:29;;;;;;;35.72;24.20;;;19.50;67.70;;;;;;5078295;28;20066;-74
2023/06/26 00:53:00;;;;;;;33.53;23.85;;;19.60;67.70;;;;;;5081651;28;20035;-74
2023/06/26 00:55:27;;;;;;;33.90;23.40;;;19.60;67.70;;;;;;5077156;28;20047;-73
2023/06/26 00:57:54;;;;;;;32.65;23.45;;;19.60;68.00;;;;;;5079737;28;20430;-73
2023/06/26 01:00:20;;;;;;;34.22;23.52;;;19.60;68.10;;;;;;5080620;28;20533;-73
2023/06/26 01:02:46;;;;;;;34.92;22.83;;;19.60;68.10;;;;;;5078580;28;20036;-72
2023/06/26 01:05:20;;;;;;;34.50;22.58;;;19.60;68.20;;;;;;5078073;28;20043;-73
2023/06/26 01:07:49;;;;;;;30.38;22.25;;;19.60;68.30;;;;;;5079692;28;20051;-72
2023/06/26 01:10:16;;;;;;;30.85;22.55;;;19.50;67.80;;;;;;5065365;28;20094;-73
2023/06/26 01:12:42;;;;;;;35.97;22.48;;;19.50;68.00;;;;;;5083410;28;20031;-72
2023/06/26 01:15:08;;;;;;;30.05;20.73;;;19.50;67.90;;;;;;5078851;28;20071;-72
2023/06/26 01:17:36;;;;;;;23.05;17.85;;;19.50;68.60;;;;;;5081403;28;20047;-72
2023/06/26 01:20:06;;;;;;;22.08;17.15;;;19.50;73.30;;;;;;5079582;28;20145;-73
2023/06/26 01:22:53;;;;;;;23.08;17.13;;;19.50;74.70;;;;;;5063296;28;20392;-73
2023/06/26 01:25:38;;;;;;;20.30;17.33;;;19.50;75.70;;;;;;5078333;28;20032;-74
2023/06/26 01:28:06;;;;;;;23.33;17.10;;;19.50;76.30;;;;;;5062373;28;20146;-74
2023/06/26 01:30:33;;;;;;;23.70;18.30;;;19.50;76.90;;;;;;5076086;28;20029;-74
2023/06/26 01:33:04;;;;;;;22.55;17.98;;;19.40;77.30;;;;;;5078483;28;20036;-74
2023/06/26 01:35:30;;;;;;;30.38;19.40;;;19.40;75.70;;;;;;5071537;28;20044;-73
2023/06/26 01:38:15;;;;;;;27.35;19.85;;;19.40;73.40;;;;;;5086002;28;20120;-73
2023/06/26 01:40:43;;;;;;;28.30;20.10;;;19.30;73.50;;;;;;5082883;28;20032;-73
2023/06/26 01:43:34;;;;;;;23.33;18.63;;;19.20;74.70;;;;;;5081421;28;20566;-72
2023/06/26 01:46:23;;;;;;;25.05;18.73;;;19.20;76.40;;;;;;5083742;28;20039;-73
2023/06/26 01:49:16;;;;;;;24.77;18.15;;;19.10;76.80;;;;;;5082527;28;20450;-73
2023/06/26 01:51:51;;;;;;;23.92;18.42;;;19.10;77.40;;;;;;5082090;28;20090;-73
2023/06/26 01:54:21;;;;;;;23.13;18.10;;;19.00;77.10;;;;;;5083684;28;20040;-73
2023/06/26 01:56:50;;;;;;;28.48;18.73;;;19.00;76.20;;;;;;5085137;28;20040;-73
2023/06/26 01:59:19;;;;;;;26.75;19.23;;;19.00;76.00;;;;;;5081267;28;20526;-73
2023/06/26 02:01:45;;;;;;;22.40;19.27;;;19.10;74.20;;;;;;5085351;28;20043;-73
2023/06/26 02:04:11;;;;;;;29.50;20.38;;;19.10;74.10;;;;;;5081472;28;20024;-73
2023/06/26 02:06:37;;;;;;;26.08;19.38;;;19.10;74.20;;;;;;5083368;28;20038;-73
2023/06/26 02:09:03;;;;;;;27.05;19.30;;;19.10;75.20;;;;;;5082969;28;20047;-73
2023/06/26 02:11:31;;;;;;;24.13;19.13;;;19.10;75.80;;;;;;5082600;28;20126;-73
2023/06/26 02:13:58;;;;;;;24.50;19.25;;;19.10;73.50;;;;;;5082824;28;20032;-72
2023/06/26 02:16:24;;;;;;;22.83;17.23;;;19.10;74.20;;;;;;5081951;28;20216;-72
2023/06/26 02:18:50;;;;;;;19.73;17.00;;;19.00;77.50;;;;;;5082763;28;20533;-73
2023/06/26 02:21:16;;;;;;;22.70;16.30;;;19.00;78.40;;;;;;5081538;28;20193;-74
2023/06/26 02:23:42;;;;;;;24.30;17.42;;;18.90;79.40;;;;;;5086256;28;20032;-73
2023/06/26 02:26:08;;;;;;;25.52;18.35;;;18.80;78.80;;;;;;5080121;28;20043;-73
2023/06/26 02:28:34;;;;;;;22.30;16.90;;;18.90;73.60;;;;;;5083862;28;20067;-73
2023/06/26 02:31:00;;;;;;;21.20;16.00;;;18.90;72.50;;;;;;5083162;28;20032;-73
2023/06/26 02:33:26;;;;;;;18.70;14.45;;;19.00;72.80;;;;;;5081797;28;20098;-76
2023/06/26 02:35:52;;;;;;;18.92;14.85;;;19.00;72.40;;;;;;5082606;28;20046;-77
2023/06/26 02:38:18;;;;;;;21.27;15.23;;;19.00;72.30;;;;;;5082576;28;20310;-77
2023/06/26 02:40:46;;;;;;;22.70;15.88;;;19.00;76.30;;;;;;5083467;28;20094;-72
2023/06/26 02:43:13;;;;;;;20.50;16.80;;;19.00;77.80;;;;;;5080422;28;20052;-72
2023/06/26 02:45:39;;;;;;;24.95;16.45;;;19.00;78.10;;;;;;5081792;28;20028;-71
2023/06/26 02:48:05;;;;;;;21.45;15.82;;;18.90;79.50;;;;;;5082899;28;20408;-70
2023/06/26 02:50:33;;;;;;;19.98;16.55;;;18.90;77.90;;;;;;5080134;28;20047;-71
2023/06/26 02:53:12;;;;;;;20.10;15.32;;;18.90;78.80;;;;;;5080661;28;20234;-71
2023/06/26 02:55:41;;;;;;;20.08;15.68;;;18.90;80.10;;;;;;5079592;28;20039;-71
2023/06/26 02:58:07;;;;;;;17.23;14.73;;;18.90;80.00;;;;;;5079970;28;20040;-71
2023/06/26 03:00:35;;;;;;;21.08;15.23;;;19.00;76.90;;;;;;5081117;28;20403;-71
2023/06/26 03:03:04;;;;;;;20.65;15.57;;;18.90;77.90;;;;;;5080579;28;20040;-71
2023/06/26 03:05:30;;;;;;;18.35;15.40;;;18.90;77.80;;;;;;5081098;28;20040;-71
2023/06/26 03:08:03;;;;;;;18.50;15.52;;;18.90;76.90;;;;;;5080363;28;20050;-71
2023/06/26 03:10:29;;;;;;;19.95;15.40;;;18.90;77.60;;;;;;5082148;28;20040;-71
2023/06/26 03:12:55;;;;;;;21.75;15.63;;;18.90;78.00;;;;;;5082165;28;20120;-71
2023/06/26 03:15:21;;;;;;;22.58;16.48;;;19.00;76.30;;;;;;5078913;28;20123;-72
2023/06/26 03:17:47;;;;;;;23.42;17.02;;;19.10;75.90;;;;;;5081622;28;20076;-73
2023/06/26 03:20:20;;;;;;;24.42;17.75;;;19.20;76.00;;;;;;5083134;28;20379;-73
2023/06/26 03:22:51;;;;;;;25.77;17.25;;;19.20;74.30;;;;;;5080150;28;20036;-73
2023/06/26 03:25:19;;;;;;;21.67;16.63;;;19.20;75.20;;;;;;5078382;28;20406;-72
2023/06/26 03:27:45;;;;;;;23.98;17.90;;;19.30;75.90;;;;;;5083937;28;20036;-73
2023/06/26 03:30:14;;;;;;;28.23;18.13;;;19.40;75.60;;;;;;5083026;28;20119;-72
2023/06/26 03:32:45;;;;;;;24.60;18.17;;;19.40;74.00;;;;;;5078131;28;20549;-73
2023/06/26 03:35:11;;;;;;;22.98;17.90;;;19.50;74.60;;;;;;5082501;28;20039;-73
2023/06/26 03:37:37;;;;;;;24.80;16.50;;;19.60;74.70;;;;;;5078715;28;20044;-76
2023/06/26 03:40:05;;;;;;;24.10;17.02;;;19.60;75.00;;;;;;5083452;28;20037;-73
2023/06/26 03:42:32;;;;;;;25.70;17.63;;;19.80;74.70;;;;;;5083970;28;20126;-75
2023/06/26 03:44:58;;;;;;;22.08;16.92;;;19.90;74.80;;;;;;5078109;28;20122;-75
2023/06/26 03:47:30;;;;;;;20.02;16.23;;;20.00;74.20;;;;;;5077359;28;20040;-74
2023/06/26 03:49:56;;;;;;;20.50;16.23;;;20.30;74.20;;;;;;5080189;28;20120;-74
2023/06/26 03:52:23;;;;;;;22.38;16.95;;;20.50;73.00;;;;;;5080577;28;20024;-72
2023/06/26 03:54:49;;;;;;;21.77;17.23;;;20.80;71.60;;;;;;5081904;28;20036;-72
2023/06/26 03:57:16;;;;;;;18.42;15.95;;;21.00;70.80;;;;;;5083401;28;20040;-72
2023/06/26 03:59:42;;;;;;;17.40;14.68;;;21.20;69.60;;;;;;5083432;28;20030;-73
2023/06/26 04:02:08;;;;;;;20.83;16.55;;;21.50;69.30;;;;;;5080790;28;20036;-73
2023/06/26 04:04:34;;;;;;;18.63;14.93;;;21.70;67.10;;;;;;5078473;28;20033;-73
2023/06/26 04:07:00;;;;;;;18.98;14.85;;;21.90;66.70;;;;;;5077436;28;20039;-73
2023/06/26 04:09:27;;;;;;;22.40;16.38;;;22.10;66.40;;;;;;5081138;28;20151;-73
2023/06/26 04:11:53;;;;;;;17.95;13.07;;;22.20;65.60;;;;;;5080802;28;20036;-73
2023/06/26 04:14:19;;;;;;;14.40;12.88;;;22.40;66.10;;;;;;5080101;28;20542;-73
2023/06/26 04:16:45;;;;;;;18.33;14.65;;;22.60;66.20;;;;;;5082838;28;20040;-73
2023/06/26 04:19:11;;;;;;;15.48;13.00;;;22.80;64.50;;;;;;5079672;28;20092;-73
2023/06/26 04:21:38;;;;;;;20.20;14.32;;;23.00;65.00;;;;;;5080728;28;20026;-74
2023/06/26 04:24:04;;;;;;;21.65;15.40;;;23.30;63.30;;;;;;5079784;28;20679;-72
2023/06/26 04:26:30;;;;;;;23.33;14.52;;;23.30;61.60;;;;;;5081376;28;20089;-73
2023/06/26 04:28:56;;;;;;;21.00;14.55;;;23.40;61.20;;;;;;5079740;28;20062;-72
2023/06/26 04:31:22;;;;;;;18.60;13.27;;;23.60;60.50;;;;;;5080184;28;20068;-73
2023/06/26 04:33:50;;;;;;;22.13;14.10;;;23.80;60.10;;;;;;5080333;28;20058;-73
2023/06/26 04:36:17;;;;;;;18.60;13.45;;;23.90;59.20;;;;;;5081542;28;20458;-72
2023/06/26 04:38:44;;;;;;;15.65;12.75;;;24.10;59.30;;;;;;5078648;28;20382;-73
2023/06/26 04:41:10;;;;;;;13.18;10.60;;;24.40;60.10;;;;;;5078956;28;20040;-72
2023/06/26 04:43:36;;;;;;;13.77;10.35;;;24.60;58.00;;;;;;5079725;28;20112;-73
2023/06/26 04:46:05;;;;;;;12.90;10.75;;;24.70;56.80;;;;;;5078512;28;20050;-73
2023/06/26 04:48:32;;;;;;;12.32;9.40;;;24.80;56.10;;;;;;5081411;28;20058;-72
2023/06/26 04:50:58;;;;;;;11.75;9.10;;;24.80;55.80;;;;;;5079747;28;20054;-73
2023/06/26 04:53:25;;;;;;;10.98;9.85;;;25.00;56.80;;;;;;5082592;28;20137;-73
2023/06/26 04:55:52;;;;;;;10.45;9.35;;;25.00;54.70;;;;;;5078620;28;20040;-74
2023/06/26 04:58:18;;;;;;;13.25;8.95;;;25.20;55.00;;;;;;5078662;28;20032;-75
2023/06/26 05:00:47;;;;;;;13.77;10.15;;;25.30;55.30;;;;;;5082520;28;20032;-75
2023/06/26 05:03:16;;;;;;;10.30;9.00;;;25.30;53.80;;;;;;5079240;28;20032;-75
2023/06/26 05:05:43;;;;;;;9.82;8.68;;;25.60;53.90;;;;;;5078019;28;20118;-75
2023/06/26 05:08:16;;;;;;;9.98;8.48;;;25.60;52.10;;;;;;5069447;28;20044;-75
2023/06/26 05:10:43;;;;;;;10.35;8.77;;;25.80;52.90;;;;;;5076677;28;20040;-75
2023/06/26 05:13:14;;;;;;;13.75;8.15;;;25.70;51.90;;;;;;5070078;28;20032;-75
2023/06/26 05:15:42;;;;;;;9.70;8.18;;;25.80;51.90;;;;;;5091640;28;20031;-75
2023/06/26 05:18:08;;;;;;;8.43;7.40;;;26.10;52.70;;;;;;5079222;28;20037;-75
2023/06/26 05:20:35;;;;;;;7.55;6.68;;;26.00;50.30;;;;;;5079334;28;20047;-75
2023/06/26 05:23:05;;;;;;;9.35;7.10;;;26.00;49.40;;;;;;5080245;28;20067;-75
2023/06/26 05:25:33;;;;;;;8.27;6.53;;;26.10;49.80;;;;;;5062940;28;20440;-75
2023/06/26 05:28:00;;;;;;;7.30;6.40;;;26.30;49.40;;;;;;5079464;28;20399;-75
2023/06/26 05:30:27;;;;;;;6.22;5.55;;;26.50;52.60;;;;;;5079489;28;20044;-75
2023/06/26 05:32:54;;;;;;;8.73;6.13;;;26.50;47.60;;;;;;5077930;28;20070;-74
2023/06/26 05:35:24;;;;;;;6.72;5.90;;;26.70;49.40;;;;;;5079184;28;20109;-74
2023/06/26 05:37:51;;;;;;;6.32;5.72;;;27.00;47.70;;;;;;5081535;28;20360;-75
2023/06/26 05:40:20;;;;;;;6.30;5.70;;;27.20;47.30;;;;;;5077951;28;20461;-75
2023/06/26 05:42:47;;;;;;;5.45;4.95;;;27.30;46.70;;;;;;5080359;28;20032;-75
2023/06/26 05:45:13;;;;;;;7.40;5.82;;;27.40;47.50;;;;;;5081321;28;21190;-76
2023/06/26 05:47:39;;;;;;;5.97;5.47;;;27.60;46.30;;;;;;5076944;28;20566;-76
2023/06/26 05:50:07;;;;;;;6.50;5.78;;;27.80;46.00;;;;;;5078759;28;21514;-76
2023/06/26 05:52:33;;;;;;;6.82;5.80;;;27.70;45.00;;;;;;5082879;28;20057;-77
2023/06/26 05:55:00;;;;;;;5.97;5.47;;;27.60;45.60;;;;;;5080823;28;20064;-76
2023/06/26 05:57:28;;;;;;;5.68;5.18;;;27.60;45.50;;;;;;5077835;28;20200;-76
2023/06/26 05:59:54;;;;;;;6.43;5.63;;;27.90;45.60;;;;;;5082080;28;20055;-76
2023/06/26 06:02:21;;;;;;;5.97;5.38;;;27.70;44.90;;;;;;5082259;28;20032;-76
2023/06/26 06:04:47;;;;;;;6.00;5.47;;;27.90;44.70;;;;;;5077708;28;20568;-76
2023/06/26 06:07:13;;;;;;;6.72;5.38;;;27.90;45.10;;;;;;5078550;28;20105;-76
2023/06/26 06:09:39;;;;;;;5.97;5.38;;;28.00;44.90;;;;;;5078671;28;20036;-77
2023/06/26 06:12:06;;;;;;;6.90;6.05;;;28.10;45.50;;;;;;5075987;28;20047;-77
2023/06/26 06:14:33;;;;;;;6.45;5.75;;;28.10;45.00;;;;;;5078816;28;20123;-76
2023/06/26 06:16:59;;;;;;;5.57;5.07;;;28.10;44.10;;;;;;5082141;28;20052;-76
2023/06/26 06:19:25;;;;;;;5.97;5.38;;;28.20;44.40;;;;;;5076076;28;20043;-77
2023/06/26 06:21:51;;;;;;;5.80;5.30;;;28.30;43.60;;;;;;5080937;28;20035;-75
2023/06/26 06:24:17;;;;;;;6.63;5.57;;;28.40;43.70;;;;;;5082350;28;20453;-77
2023/06/26 06:26:43;;;;;;;5.45;5.05;;;28.40;44.70;;;;;;5081727;28;20111;-77
2023/06/26 06:29:10;;;;;;;6.20;5.60;;;28.50;44.50;;;;;;5067781;28;20541;-75
2023/06/26 06:31:36;;;;;;;6.05;5.07;;;28.50;43.50;;;;;;5081508;28;20036;-76
2023/06/26 06:34:02;;;;;;;5.32;4.93;;;28.40;43.20;;;;;;5082041;28;20078;-76
2023/06/26 06:36:28;;;;;;;6.75;5.60;;;28.60;44.30;;;;;;5081813;28;20123;-76
2023/06/26 06:38:54;;;;;;;5.82;5.18;;;28.90;44.50;;;;;;5082792;28;20036;-76
2023/06/26 06:41:20;;;;;;;5.95;5.45;;;29.10;44.00;;;;;;5082957;28;20067;-75
2023/06/26 06:43:47;;;;;;;5.70;5.20;;;29.10;43.60;;;;;;5081387;28;20537;-75
2023/06/26 06:46:13;;;;;;;5.80;5.25;;;29.30;44.00;;;;;;5080222;28;20510;-75
2023/06/26 06:48:38;;;;;;;5.43;4.93;;;29.20;42.40;;;;;;5080630;28;20064;-75
2023/06/26 06:51:05;;;;;;;5.43;4.93;;;29.10;43.00;;;;;;5081610;28;20036;-76
2023/06/26 06:53:33;;;;;;;6.50;5.90;;;28.70;42.40;;;;;;5083129;28;20042;-75
2023/06/26 06:55:59;;;;;;;6.13;5.43;;;28.70;43.00;;;;;;5082796;28;20135;-75
2023/06/26 06:58:25;;;;;;;5.95;5.35;;;28.80;43.10;;;;;;5080544;28;20036;-75
2023/06/26 07:00:51;;;;;;;5.43;4.93;;;28.50;41.50;;;;;;5082593;28;20069;-74
2023/06/26 07:03:18;;;;;;;5.22;4.72;;;28.60;41.90;;;;;;5082850;28;20032;-75
2023/06/26 07:05:46;;;;;;;4.65;4.25;;;28.50;42.10;;;;;;5080144;28;20043;-75
2023/06/26 07:08:13;;;;;;;5.07;4.68;;;28.60;41.90;;;;;;5085396;28;20050;-73
2023/06/26 07:10:39;;;;;;;4.95;4.40;;;28.40;39.60;;;;;;5082694;28;20040;-74
2023/06/26 07:13:05;;;;;;;5.68;4.95;;;28.20;41.00;;;;;;5080378;28;20038;-74
2023/06/26 07:15:31;;;;;;;5.78;4.78;;;27.80;41.50;;;;;;5080869;28;20028;-73
2023/06/26 07:17:57;;;;;;;5.57;4.95;;;27.90;41.80;;;;;;5085236;28;20089;-74
2023/06/26 07:20:23;;;;;;;5.55;4.47;;;28.00;41.90;;;;;;5082184;28;20036;-75
2023/06/26 07:22:50;;;;;;;5.40;4.75;;;27.90;42.10;;;;;;5080642;28;20051;-74
2023/06/26 07:25:16;;;;;;;6.03;5.10;;;28.00;42.00;;;;;;5082181;28;20038;-72
2023/06/26 07:27:44;;;;;;;6.22;5.63;;;28.10;42.20;;;;;;5079948;28;20020;-74
2023/06/26 07:30:10;;;;;;;6.20;5.60;;;27.70;42.40;;;;;;5079672;28;20043;-73
2023/06/26 07:32:37;;;;;;;6.60;5.88;;;27.70;42.80;;;;;;5079696;28;20036;-74
2023/06/26 07:35:04;;;;;;;5.70;5.20;;;27.90;43.50;;;;;;5080312;28;20047;-74
2023/06/26 07:37:30;;;;;;;6.30;5.68;;;27.90;43.30;;;;;;5081423;28;20044;-74
2023/06/26 07:39:56;;;;;;;5.90;5.30;;;28.00;43.60;;;;;;5080861;28;20345;-76
2023/06/26 07:42:22;;;;;;;5.60;5.10;;;28.10;43.30;;;;;;5082087;28;20463;-74
2023/06/26 07:44:48;;;;;;;6.22;5.60;;;28.10;43.50;;;;;;5077789;28;20078;-74
2023/06/26 07:47:15;;;;;;;6.93;5.70;;;28.20;42.80;;;;;;5084061;28;20374;-75
2023/06/26 07:49:41;;;;;;;6.35;5.25;;;28.20;43.50;;;;;;5080915;28;20441;-74
2023/06/26 07:52:10;;;;;;;5.45;4.95;;;28.10;43.50;;;;;;5079246;28;20487;-74
2023/06/26 07:54:36;;;;;;;7.53;5.43;;;28.20;44.50;;;;;;5079131;28;20046;-74
2023/06/26 07:57:08;;;;;;;7.55;6.80;;;28.10;45.30;;;;;;5080907;28;20024;-74
2023/06/26 07:59:35;;;;;;;6.55;5.43;;;27.90;43.10;;;;;;5079403;28;20033;-76
2023/06/26 08:02:01;;;;;;;7.10;5.95;;;27.90;44.90;;;;;;5082042;28;20028;-75
2023/06/26 08:04:31;;;;;;;6.38;5.78;;;27.60;42.30;;;;;;5079600;28;20051;-74
2023/06/26 08:06:59;;;;;;;5.97;5.10;;;27.40;42.10;;;;;;5082440;28;20036;-75
2023/06/26 08:09:28;;;;;;;6.10;5.60;;;27.50;43.50;;;;;;5080136;28;20127;-75
2023/06/26 08:11:55;;;;;;;6.85;5.82;;;27.20;42.30;;;;;;5079168;28;20086;-75
2023/06/26 08:14:21;;;;;;;6.43;5.82;;;27.00;43.30;;;;;;5079011;28;20448;-77
2023/06/26 08:16:47;;;;;;;6.70;5.30;;;26.90;43.80;;;;;;5079122;28;20036;-74
2023/06/26 08:19:14;;;;;;;6.88;6.10;;;27.00;45.50;;;;;;5080646;28;20052;-70
2023/06/26 08:21:44;;;;;;;7.57;5.30;;;26.90;43.60;;;;;;5081025;28;20039;-73
2023/06/26 08:24:11;;;;;;;7.82;5.97;;;26.90;43.10;;;;;;5078378;28;20040;-73
2023/06/26 08:26:37;;;;;;;8.30;5.55;;;26.90;43.60;;;;;;5078800;28;20111;-73
2023/06/26 08:29:07;;;;;;;8.60;5.72;;;26.90;44.20;;;;;;5079557;28;20036;-72
2023/06/26 08:31:37;;;;;;;5.70;5.20;;;26.90;43.50;;;;;;5084402;28;20028;-71
2023/06/26 08:34:03;;;;;;;5.88;5.38;;;27.00;46.90;;;;;;5079151;28;20057;-70
2023/06/26 08:36:29;;;;;;;6.20;5.60;;;26.70;41.80;;;;;;5078190;28;21568;-72
2023/06/26 08:38:55;;;;;;;6.45;5.40;;;26.90;43.60;;;;;;5080508;28;20028;-70
2023/06/26 08:41:21;;;;;;;6.20;5.60;;;26.60;42.90;;;;;;5079270;28;20028;-70
2023/06/26 08:43:50;;;;;;;6.22;5.35;;;26.60;43.00;;;;;;5079578;28;20028;-72
2023/06/26 08:46:16;;;;;;;6.75;5.65;;;26.40;42.90;;;;;;5079302;28;20448;-70
2023/06/26 08:48:48;;;;;;;6.10;5.50;;;26.60;42.60;;;;;;5078607;28;20034;-70
2023/06/26 08:51:16;;;;;;;6.40;5.80;;;26.60;44.20;;;;;;5081165;28;20029;-71
2023/06/26 08:53:58;;;;;;;7.28;5.63;;;26.70;44.30;;;;;;5078316;28;20032;-70
2023/06/26 08:56:27;;;;;;;6.60;5.85;;;26.70;43.00;;;;;;5077763;28;20530;-70
2023/06/26 08:58:54;;;;;;;6.65;5.93;;;26.70;43.40;;;;;;5080433;28;20495;-70
2023/06/26 09:01:21;;;;;;;11.07;9.63;;;26.60;43.40;;;;;;5078906;28;20051;-69
2023/06/26 09:03:47;;;;;;;10.82;9.65;;;26.50;42.80;;;;;;5079213;28;20035;-71
2023/06/26 09:06:13;;;;;;;8.40;7.53;;;26.30;41.10;;;;;;5081113;28;20036;-71
2023/06/26 09:08:39;;;;;;;6.57;5.97;;;26.30;41.90;;;;;;5080060;28;20310;-71
2023/06/26 09:11:05;;;;;;;7.30;6.57;;;26.20;42.30;;;;;;5079129;28;20131;-71
2023/06/26 09:13:31;;;;;;;6.88;6.28;;;26.30;42.90;;;;;;5077601;28;20122;-71
2023/06/26 09:15:58;;;;;;;7.13;6.40;;;26.20;42.00;;;;;;5079999;28;20465;-71
2023/06/26 09:18:27;;;;;;;7.40;6.25;;;26.30;42.70;;;;;;5078245;28;20089;-70
2023/06/26 09:20:54;;;;;;;6.38;5.78;;;26.10;42.10;;;;;;5079306;28;20028;-71
2023/06/26 09:23:21;;;;;;;6.70;5.70;;;26.00;42.50;;;;;;5081833;28;20032;-71
2023/06/26 09:25:48;;;;;;;8.18;6.43;;;26.10;43.30;;;;;;5077733;28;20048;-70
2023/06/26 09:28:14;;;;;;;6.32;5.72;;;26.20;43.50;;;;;;5078647;28;20036;-70
2023/06/26 09:30:41;;;;;;;6.53;5.88;;;26.10;44.20;;;;;;5079927;28;20024;-71
2023/06/26 09:33:18;;;;;;;6.53;5.82;;;26.00;43.90;;;;;;5077493;28;20042;-69
2023/06/26 09:35:45;;;;;;;6.43;5.82;;;25.80;42.60;;;;;;5076819;28;20040;-71
2023/06/26 09:38:12;;;;;;;6.00;5.50;;;25.80;43.10;;;;;;5078386;28;20570;-70
2023/06/26 09:40:39;;;;;;;5.75;5.25;;;25.90;42.60;;;;;;5078883;28;20055;-69
2023/06/26 09:43:09;;;;;;;6.53;5.80;;;26.00;42.80;;;;;;5080859;28;20032;-72
2023/06/26 09:45:38;;;;;;;7.60;6.10;;;26.00;42.80;;;;;;5079989;28;20067;-69
2023/06/26 09:48:07;;;;;;;5.50;4.95;;;26.20;42.80;;;;;;5077421;28;20126;-70
2023/06/26 09:50:34;;;;;;;6.60;5.45;;;26.20;43.20;;;;;;5081503;28;20055;-69
2023/06/26 09:53:18;;;;;;;7.40;5.97;;;26.20;42.80;;;;;;5077007;28;20032;-70
2023/06/26 09:55:44;;;;;;;6.57;5.72;;;26.10;43.00;;;;;;5079472;28;20043;-71
2023/06/26 09:58:17;;;;;;;9.73;6.18;;;26.10;43.00;;;;;;5083029;28;20042;-70
2023/06/26 10:00:43;;;;;;;6.55;5.85;;;26.00;43.30;;;;;;5084788;28;20020;-70
2023/06/26 10:03:13;;;;;;;6.78;6.00;;;26.00;44.00;;;;;;5084233;28;20067;-71
2023/06/26 10:05:40;;;;;;;6.55;5.63;;;26.00;43.80;;;;;;5084732;28;20032;-71
2023/06/26 10:08:06;;;;;;;6.35;5.75;;;25.80;42.60;;;;;;5082272;28;20032;-70
2023/06/26 10:10:36;;;;;;;5.88;5.38;;;25.90;43.20;;;;;;5082093;28;20039;-71
2023/06/26 10:13:13;;;;;;;7.32;5.90;;;25.90;43.80;;;;;;5082723;28;20403;-71
2023/06/26 10:15:42;;;;;;;6.78;6.18;;;25.70;42.90;;;;;;5080870;28;20356;-70
2023/06/26 10:18:08;;;;;;;6.72;5.50;;;25.60;43.40;;;;;;5082315;28;20640;-70
2023/06/26 10:20:34;;;;;;;6.30;5.70;;;25.70;44.10;;;;;;5082154;28;20411;-71
2023/06/26 10:23:05;;;;;;;7.20;5.93;;;25.70;44.30;;;;;;5083235;28;20029;-71
2023/06/26 10:25:32;;;;;;;7.38;5.35;;;25.60;43.40;;;;;;5067348;28;20555;-71
2023/06/26 10:28:02;;;;;;;7.45;5.70;;;25.70;44.40;;;;;;5081376;28;20032;-70
2023/06/26 10:30:33;;;;;;;6.85;6.20;;;25.70;44.20;;;;;;5084270;28;20411;-70
2023/06/26 10:33:00;;;;;;;6.43;5.80;;;25.70;44.10;;;;;;5081431;28;21726;-70
2023/06/26 10:35:27;;;;;;;6.40;5.75;;;25.80;44.40;;;;;;5082345;28;20162;-70
2023/06/26 10:38:01;;;;;;;6.53;5.72;;;25.70;44.20;;;;;;5081566;28;20514;-71
2023/06/26 10:40:39;;;;;;;7.47;5.60;;;25.70;44.20;;;;;;5081027;28;20047;-70
2023/06/26 10:43:10;;;;;;;7.18;5.53;;;25.60;44.20;;;;;;5081615;28;20032;-70
2023/06/26 10:45:36;;;;;;;6.55;5.53;;;25.70;44.20;;;;;;5084343;28;20609;-70
2023/06/26 10:48:06;;;;;;;10.00;6.10;;;25.70;44.70;;;;;;5081746;28;20071;-71
2023/06/26 10:50:37;;;;;;;6.53;5.85;;;25.60;43.90;;;;;;5082851;28;20070;-70
2023/06/26 10:53:15;;;;;;;5.88;5.38;;;25.40;43.30;;;;;;5083956;28;20032;-71
2023/06/26 10:55:43;;;;;;;6.50;5.82;;;25.40;44.00;;;;;;5080964;28;20055;-70
2023/06/26 10:58:47;;;;;;;5.38;4.88;;;25.40;43.70;;;;;;5083558;28;20036;-70
2023/06/26 11:01:24;;;;;;;6.22;5.32;;;25.40;43.50;;;;;;5081009;28;20454;-70
2023/06/26 11:04:07;;;;;;;6.05;5.50;;;25.40;43.10;;;;;;5081012;28;20608;-70
2023/06/26 11:06:34;;;;;;;6.30;5.70;;;25.40;44.10;;;;;;5061804;28;20037;-71
2023/06/26 11:09:10;;;;;;;6.13;5.53;;;25.40;43.90;;;;;;5059671;28;20040;-71
2023/06/26 11:11:52;;;;;;;6.20;5.60;;;25.50;43.30;;;;;;5061095;28;20115;-71
2023/06/26 11:14:27;;;;;;;6.32;5.70;;;25.60;43.60;;;;;;5060090;28;20653;-76
2023/06/26 11:16:57;;;;;;;6.38;5.75;;;25.40;41.40;;;;;;5060173;28;20415;-71
2023/06/26 11:19:26;;;;;;;5.88;5.25;;;25.40;42.70;;;;;;5061207;28;20023;-71
2023/06/26 11:21:58;;;;;;;7.00;5.47;;;25.40;42.70;;;;;;5062022;28;20040;-70
2023/06/26 11:24:24;;;;;;;5.60;5.10;;;25.40;41.70;;;;;;5061392;28;20161;-71
2023/06/26 11:26:49;;;;;;;6.22;5.13;;;25.50;42.20;;;;;;5060101;28;20215;-70
2023/06/26 11:29:15;;;;;;;6.63;5.68;;;25.40;41.80;;;;;;5060700;28;20496;-71
2023/06/26 11:31:42;;;;;;;5.90;5.30;;;25.40;41.70;;;;;;5059471;28;20029;-71
2023/06/26 11:34:11;;;;;;;6.28;5.70;;;25.30;41.60;;;;;;5060938;28;20024;-70
2023/06/26 11:36:42;;;;;;;6.65;5.40;;;25.10;42.00;;;;;;5058138;28;20033;-71
2023/06/26 11:39:08;;;;;;;6.05;5.45;;;25.30;43.80;;;;;;5058860;28;20090;-70
2023/06/26 11:41:36;;;;;;;7.45;5.60;;;25.30;42.80;;;;;;5062038;28;20465;-70
2023/06/26 11:44:04;;;;;;;5.82;5.32;;;25.30;42.50;;;;;;5060967;28;20025;-70
2023/06/26 11:46:30;;;;;;;5.90;5.30;;;25.20;42.60;;;;;;5059704;28;20082;-71
2023/06/26 11:48:56;;;;;;;6.20;5.25;;;25.30;43.30;;;;;;5060556;28;20032;-71
2023/06/26 11:51:23;;;;;;;5.18;4.68;;;25.30;42.40;;;;;;5061626;28;20121;-71
2023/06/26 11:53:49;;;;;;;6.57;5.18;;;25.20;42.30;;;;;;5061183;28;20025;-70
2023/06/26 11:56:16;;;;;;;6.13;5.47;;;25.30;43.00;;;;;;5060039;28;20455;-71
2023/06/26 11:59:00;;;;;;;6.18;5.15;;;25.40;42.70;;;;;;5061486;28;20138;-71
2023/06/26 12:01:41;;;;;;;6.13;5.32;;;25.40;42.80;;;;;;5061096;28;20381;-70
2023/06/26 12:04:14;;;;;;;5.47;4.97;;;25.50;43.30;;;;;;5060002;28;20036;-69
2023/06/26 12:06:42;;;;;;;6.03;5.43;;;25.50;42.40;;;;;;5059648;28;20033;-70
2023/06/26 12:09:13;;;;;;;5.97;5.38;;;25.60;43.00;;;;;;5058415;28;20040;-69
2023/06/26 12:11:42;;;;;;;6.05;5.05;;;25.70;43.20;;;;;;5060789;28;20464;-70
2023/06/26 12:14:08;;;;;;;5.90;5.10;;;25.60;41.70;;;;;;5061023;28;20056;-70
2023/06/26 12:16:36;;;;;;;8.35;5.45;;;25.70;42.60;;;;;;5059427;28;20040;-70
2023/06/26 12:19:06;;;;;;;6.45;5.85;;;25.70;43.30;;;;;;5060391;28;20032;-71
2023/06/26 12:21:40;;;;;;;5.80;5.20;;;25.80;42.70;;;;;;5080484;28;20506;-71
2023/06/26 12:24:13;;;;;;;6.20;5.57;;;25.80;42.80;;;;;;5080493;28;20138;-71
2023/06/26 12:26:41;;;;;;;5.45;4.95;;;25.60;42.60;;;;;;5082660;28;20039;-72
2023/06/26 12:29:17;;;;;;;5.70;5.18;;;25.60;42.90;;;;;;5080620;28;20101;-69
2023/06/26 12:31:45;;;;;;;6.03;5.43;;;25.50;43.10;;;;;;5080507;28;20388;-70
2023/06/26 12:34:16;;;;;;;6.30;5.32;;;25.50;43.00;;;;;;5077109;28;20032;-70
2023/06/26 12:36:53;;;;;;;7.28;5.43;;;25.50;42.50;;;;;;5079351;28;20044;-70
2023/06/26 12:39:20;;;;;;;5.80;4.97;;;25.40;43.00;;;;;;5080773;28;20423;-70
2023/06/26 12:41:57;;;;;;;6.32;5.63;;;25.50;43.20;;;;;;5080366;28;20032;-69
2023/06/26 12:44:30;;;;;;;5.63;5.10;;;25.50;43.10;;;;;;5079377;28;20039;-72